createdAt,value
2016-10-30T00:00:16.834Z,19.99
2016-10-30T00:01:17.517Z,20.02
2016-10-30T00:02:17.619Z,20.01
2016-10-30T00:03:16.647Z,19.95
2016-10-30T00:04:17.755Z,19.94
2016-10-30T00:05:17.372Z,19.94
2016-10-30T00:06:16.771Z,19.96
2016-10-30T00:07:16.486Z,19.98
2016-10-30T00:08:17.773Z,19.94
2016-10-30T00:09:18.705Z,19.91
2016-10-30T00:10:16.206Z,19.87
2016-10-30T00:11:17.270Z,19.98
2016-10-30T00:12:18.762Z,19.94
2016-10-30T00:13:16.634Z,19.96
2016-10-30T00:14:17.603Z,19.91
2016-10-30T00:15:17.445Z,19.73
2016-10-30T00:16:18.524Z,19.5
2016-10-30T00:17:16.242Z,19.5
2016-10-30T00:18:19.494Z,19.48
2016-10-30T00:19:16.619Z,19.44
2016-10-30T00:20:17.609Z,19.55
2016-10-30T00:21:17.358Z,19.54
2016-10-30T00:22:17.054Z,19.66
2016-10-30T00:23:17.729Z,19.66
2016-10-30T00:24:17.681Z,19.86
2016-10-30T00:25:17.176Z,19.87
2016-10-30T00:26:16.601Z,19.91
2016-10-30T00:27:18.166Z,19.88
2016-10-30T00:28:16.988Z,20.03
2016-10-30T00:29:16.622Z,19.96
2016-10-30T00:30:17.451Z,19.98
2016-10-30T00:31:18.957Z,20.02
2016-10-30T00:32:18.103Z,19.94
2016-10-30T00:33:17.574Z,19.92
2016-10-30T00:34:17.591Z,19.87
2016-10-30T00:35:16.536Z,19.88
2016-10-30T00:36:17.749Z,19.98
2016-10-30T00:37:17.692Z,19.91
2016-10-30T00:38:17.122Z,19.96
2016-10-30T00:39:16.358Z,19.94
2016-10-30T00:40:20.053Z,19.88
2016-10-30T00:41:16.835Z,19.95
2016-10-30T00:42:18.029Z,19.88
2016-10-30T00:43:17.751Z,19.92
2016-10-30T00:44:17.006Z,19.92
2016-10-30T00:45:16.396Z,19.84
2016-10-30T00:46:17.808Z,19.83
2016-10-30T00:47:17.388Z,19.87
2016-10-30T00:48:16.770Z,19.87
2016-10-30T00:49:19.478Z,19.87
2016-10-30T00:50:17.515Z,19.87
2016-10-30T00:51:19.076Z,19.87
2016-10-30T00:52:18.103Z,19.91
2016-10-30T00:53:19.402Z,19.87
2016-10-30T00:54:16.991Z,19.83
2016-10-30T00:55:16.486Z,19.84
2016-10-30T00:56:17.499Z,19.92
2016-10-30T00:57:17.116Z,19.87
2016-10-30T00:58:17.915Z,19.88
2016-10-30T01:00:43.677Z,19.88
2016-10-30T01:01:43.258Z,19.88
2016-10-30T01:02:43.889Z,19.84
2016-10-30T01:03:43.849Z,19.81
2016-10-30T01:04:43.328Z,19.8
2016-10-30T01:05:44.127Z,19.88
2016-10-30T01:06:45.587Z,19.86
2016-10-30T01:07:43.452Z,19.86
2016-10-30T01:08:44.725Z,19.8
2016-10-30T01:09:42.242Z,19.68
2016-10-30T01:10:43.624Z,19.77
2016-10-30T01:11:42.936Z,19.84
2016-10-30T01:12:42.263Z,19.78
2016-10-30T01:13:45.189Z,19.88
2016-10-30T01:14:43.062Z,19.84
2016-10-30T01:15:43.851Z,19.86
2016-10-30T01:16:43.656Z,19.86
2016-10-30T01:17:42.901Z,19.86
2016-10-30T01:18:43.976Z,19.71
2016-10-30T01:19:45.357Z,19.73
2016-10-30T01:20:44.750Z,19.76
2016-10-30T01:21:42.376Z,19.66
2016-10-30T01:22:43.889Z,19.71
2016-10-30T01:23:43.423Z,19.65
2016-10-30T01:24:44.109Z,19.74
2016-10-30T01:25:42.339Z,19.73
2016-10-30T01:26:44.985Z,19.84
2016-10-30T01:27:42.955Z,19.71
2016-10-30T01:28:58.566Z,19.71
2016-10-30T01:29:43.724Z,19.73
2016-10-30T01:30:44.789Z,19.68
2016-10-30T01:31:42.365Z,19.68
2016-10-30T01:32:43.841Z,19.47
2016-10-30T01:33:43.157Z,19.21
2016-10-30T01:34:42.489Z,19.18
2016-10-30T01:35:43.745Z,19.1
2016-10-30T01:36:43.271Z,19.18
2016-10-30T01:37:42.699Z,19.32
2016-10-30T01:38:43.435Z,19.46
2016-10-30T01:39:43.393Z,19.55
2016-10-30T01:40:42.717Z,19.47
2016-10-30T01:41:45.547Z,19.56
2016-10-30T01:42:43.565Z,19.63
2016-10-30T01:43:44.313Z,19.66
2016-10-30T01:44:44.111Z,19.68
2016-10-30T01:45:45.079Z,19.61
2016-10-30T01:46:43.005Z,19.66
2016-10-30T01:47:43.903Z,19.62
2016-10-30T01:48:43.530Z,19.62
2016-10-30T01:49:44.459Z,19.66
2016-10-30T01:50:42.658Z,19.61
2016-10-30T01:51:45.327Z,19.66
2016-10-30T01:52:44.860Z,19.73
2016-10-30T01:53:42.789Z,19.66
2016-10-30T01:54:43.843Z,19.66
2016-10-30T01:55:43.087Z,19.68
2016-10-30T01:56:44.166Z,19.66
2016-10-30T01:57:43.961Z,19.66
2016-10-30T01:58:43.228Z,19.66
2016-10-30T01:59:44.173Z,19.61
2016-10-30T02:00:43.771Z,19.5
2016-10-30T02:01:43.661Z,19.22
2016-10-30T02:02:44.332Z,19.22
2016-10-30T02:03:45.793Z,19.1
2016-10-30T02:04:45.176Z,19.04
2016-10-30T02:05:43.094Z,18.88
2016-10-30T02:06:43.897Z,19.14
2016-10-30T02:07:43.856Z,19.21
2016-10-30T02:08:42.900Z,19.37
2016-10-30T02:09:42.687Z,19.44
2016-10-30T02:10:44.034Z,19.58
2016-10-30T02:11:44.779Z,19.65
2016-10-30T02:12:44.166Z,19.68
2016-10-30T02:13:44.244Z,19.66
2016-10-30T02:14:46.996Z,19.71
2016-10-30T02:15:42.834Z,19.65
2016-10-30T02:16:43.739Z,19.71
2016-10-30T02:17:43.581Z,19.77
2016-10-30T02:18:42.601Z,19.65
2016-10-30T02:19:44.223Z,19.63
2016-10-30T02:20:43.396Z,19.61
2016-10-30T02:21:43.009Z,19.66
2016-10-30T02:22:43.863Z,19.68
2016-10-30T02:23:43.551Z,19.66
2016-10-30T02:24:43.434Z,19.71
2016-10-30T02:25:44.741Z,19.47
2016-10-30T02:26:43.947Z,19.33
2016-10-30T02:27:44.723Z,19.23
2016-10-30T02:28:44.116Z,19.19
2016-10-30T02:29:43.812Z,19.16
2016-10-30T02:30:44.873Z,19.14
2016-10-30T02:31:43.021Z,19.14
2016-10-30T02:32:44.036Z,19.33
2016-10-30T02:33:44.997Z,19.31
2016-10-30T02:34:43.039Z,19.43
2016-10-30T02:35:44.067Z,19.48
2016-10-30T02:36:47.218Z,19.48
2016-10-30T02:37:43.068Z,19.46
2016-10-30T02:38:43.835Z,19.46
2016-10-30T02:39:43.849Z,19.5
2016-10-30T02:40:44.602Z,19.51
2016-10-30T02:41:43.959Z,19.55
2016-10-30T02:42:45.341Z,19.55
2016-10-30T02:43:42.935Z,19.69
2016-10-30T02:44:42.737Z,19.61
2016-10-30T02:45:45.911Z,19.61
2016-10-30T02:46:44.846Z,19.61
2016-10-30T02:47:45.034Z,19.54
2016-10-30T02:48:44.221Z,19.59
2016-10-30T02:49:44.968Z,19.65
2016-10-30T02:50:43.083Z,19.59
2016-10-30T02:51:44.132Z,19.63
2016-10-30T02:52:43.652Z,19.62
2016-10-30T02:53:44.450Z,19.63
2016-10-30T02:54:44.248Z,19.63
2016-10-30T02:55:45.211Z,19.66
2016-10-30T02:56:44.571Z,19.5
2016-10-30T02:57:43.929Z,19.59
2016-10-30T02:58:45.308Z,19.58
2016-10-30T02:59:43.207Z,19.66
2016-10-30T03:00:44.051Z,19.59
2016-10-30T03:01:44.017Z,19.51
2016-10-30T03:02:44.701Z,19.62
2016-10-30T03:03:44.177Z,19.66
2016-10-30T03:04:44.193Z,19.62
2016-10-30T03:05:43.503Z,19.59
2016-10-30T03:06:44.297Z,19.63
2016-10-30T03:07:45.703Z,19.68
2016-10-30T03:08:43.314Z,19.63
2016-10-30T03:09:44.419Z,19.66
2016-10-30T03:10:43.944Z,19.61
2016-10-30T03:11:43.794Z,19.65
2016-10-30T03:12:43.200Z,19.59
2016-10-30T03:13:44.335Z,19.47
2016-10-30T03:14:43.855Z,19.54
2016-10-30T03:15:43.216Z,19.65
2016-10-30T03:16:44.305Z,19.59
2016-10-30T03:17:44.042Z,19.59
2016-10-30T03:18:44.885Z,19.66
2016-10-30T03:19:42.928Z,19.65
2016-10-30T03:20:45.552Z,19.59
2016-10-30T03:21:44.836Z,19.54
2016-10-30T03:22:43.031Z,19.48
2016-10-30T03:23:45.680Z,19.48
2016-10-30T03:24:43.234Z,19.51
2016-10-30T03:25:44.391Z,19.61
2016-10-30T03:26:44.097Z,19.54
2016-10-30T03:27:43.449Z,19.56
2016-10-30T03:28:44.514Z,19.5
2016-10-30T03:29:44.368Z,19.5
2016-10-30T03:30:43.930Z,19.66
2016-10-30T03:31:44.602Z,19.61
2016-10-30T03:32:44.432Z,19.56
2016-10-30T03:33:43.961Z,19.66
2016-10-30T03:34:43.319Z,19.55
2016-10-30T03:35:44.555Z,19.51
2016-10-30T03:36:44.088Z,19.55
2016-10-30T03:37:44.776Z,19.55
2016-10-30T03:38:43.029Z,19.46
2016-10-30T03:39:43.948Z,19.5
2016-10-30T03:40:45.071Z,19.51
2016-10-30T03:41:44.414Z,19.56
2016-10-30T03:42:44.381Z,19.5
2016-10-30T03:43:43.377Z,19.5
2016-10-30T03:44:44.430Z,19.61
2016-10-30T03:45:44.515Z,19.44
2016-10-30T03:46:43.815Z,19.37
2016-10-30T03:47:43.399Z,19.51
2016-10-30T03:48:44.213Z,19.56
2016-10-30T03:49:43.624Z,19.51
2016-10-30T03:50:44.732Z,19.58
2016-10-30T03:51:44.507Z,19.54
2016-10-30T03:52:44.061Z,19.46
2016-10-30T03:53:43.669Z,19.48
2016-10-30T03:54:44.386Z,19.44
2016-10-30T03:55:45.619Z,19.56
2016-10-30T03:56:43.231Z,19.54
2016-10-30T03:57:44.774Z,19.5
2016-10-30T03:58:58.816Z,19.4
2016-10-30T03:59:44.985Z,19.48
2016-10-30T04:00:44.901Z,19.46
2016-10-30T04:01:45.868Z,19.48
2016-10-30T04:02:43.768Z,19.48
2016-10-30T04:03:44.584Z,19.47
2016-10-30T04:04:46.362Z,19.47
2016-10-30T04:05:43.904Z,19.62
2016-10-30T04:06:43.177Z,19.51
2016-10-30T04:07:44.658Z,19.55
2016-10-30T04:08:44.032Z,19.51
2016-10-30T04:09:43.189Z,19.51
2016-10-30T04:10:44.631Z,19.51
2016-10-30T04:11:44.163Z,19.56
2016-10-30T04:12:43.521Z,19.51
2016-10-30T04:13:44.430Z,19.47
2016-10-30T04:14:45.715Z,19.44
2016-10-30T04:15:43.583Z,19.4
2016-10-30T04:16:44.316Z,19.44
2016-10-30T04:17:44.082Z,19.43
2016-10-30T04:18:43.706Z,19.4
2016-10-30T04:19:44.653Z,19.41
2016-10-30T04:20:45.958Z,19.41
2016-10-30T04:21:43.877Z,19.47
2016-10-30T04:22:44.620Z,19.36
2016-10-30T04:23:44.690Z,19.4
2016-10-30T04:24:45.441Z,19.41
2016-10-30T04:25:43.276Z,19.43
2016-10-30T04:26:46.151Z,19.43
2016-10-30T04:27:43.811Z,19.31
2016-10-30T04:29:13.626Z,19.46
2016-10-30T04:29:44.403Z,19.39
2016-10-30T04:30:45.685Z,19.47
2016-10-30T04:31:43.358Z,19.44
2016-10-30T04:32:44.401Z,19.4
2016-10-30T04:33:44.368Z,19.41
2016-10-30T04:34:43.679Z,19.44
2016-10-30T04:35:46.647Z,19.4
2016-10-30T04:36:44.494Z,19.41
2016-10-30T04:37:45.541Z,19.47
2016-10-30T04:38:45.017Z,19.46
2016-10-30T04:39:44.705Z,19.5
2016-10-30T04:40:43.970Z,19.46
2016-10-30T04:41:44.721Z,19.4
2016-10-30T04:42:46.224Z,19.37
2016-10-30T04:43:45.418Z,19.43
2016-10-30T04:44:43.371Z,19.5
2016-10-30T04:45:44.481Z,19.37
2016-10-30T04:46:43.905Z,19.44
2016-10-30T04:47:43.748Z,19.44
2016-10-30T04:48:46.381Z,19.41
2016-10-30T04:49:45.780Z,19.43
2016-10-30T04:50:45.081Z,19.47
2016-10-30T04:51:44.776Z,19.43
2016-10-30T04:52:44.464Z,19.44
2016-10-30T04:53:45.261Z,19.36
2016-10-30T04:54:44.619Z,19.46
2016-10-30T04:55:44.583Z,19.43
2016-10-30T04:56:43.590Z,19.37
2016-10-30T04:57:44.742Z,19.36
2016-10-30T04:59:00.973Z,19.37
2016-10-30T04:59:45.631Z,19.41
2016-10-30T05:00:45.146Z,19.47
2016-10-30T05:01:44.580Z,19.43
2016-10-30T05:02:44.195Z,19.41
2016-10-30T05:03:43.781Z,19.41
2016-10-30T05:04:44.958Z,19.33
2016-10-30T05:05:44.316Z,19.36
2016-10-30T05:06:43.486Z,19.23
2016-10-30T05:07:44.548Z,19.29
2016-10-30T05:08:45.924Z,19.22
2016-10-30T05:09:43.824Z,19.22
2016-10-30T05:10:45.433Z,19.14
2016-10-30T05:11:45.997Z,19.23
2016-10-30T05:12:45.240Z,19.22
2016-10-30T05:13:44.715Z,19.26
2016-10-30T05:14:44.424Z,19.29
2016-10-30T05:15:43.675Z,19.26
2016-10-30T05:16:43.533Z,19.25
2016-10-30T05:17:44.544Z,19.26
2016-10-30T05:18:43.795Z,19.32
2016-10-30T05:19:44.959Z,19.31
2016-10-30T05:20:46.365Z,19.33
2016-10-30T05:21:45.847Z,19.26
2016-10-30T05:22:43.617Z,19.19
2016-10-30T05:23:44.982Z,19.21
2016-10-30T05:24:45.846Z,19.32
2016-10-30T05:25:45.208Z,19.25
2016-10-30T05:26:44.678Z,19.33
2016-10-30T05:27:44.530Z,19.39
2016-10-30T05:28:45.271Z,19.39
2016-10-30T05:29:44.966Z,19.26
2016-10-30T05:30:46.152Z,19.22
2016-10-30T05:31:43.649Z,19.22
2016-10-30T05:32:45.366Z,19.23
2016-10-30T05:33:44.512Z,19.26
2016-10-30T05:34:45.458Z,19.4
2016-10-30T05:35:44.932Z,19.31
2016-10-30T05:36:44.901Z,19.33
2016-10-30T05:37:44.259Z,19.23
2016-10-30T05:38:45.334Z,19.22
2016-10-30T05:39:45.070Z,19.21
2016-10-30T05:40:45.800Z,19.26
2016-10-30T05:41:45.262Z,19.28
2016-10-30T05:42:45.026Z,19.21
2016-10-30T05:43:45.939Z,19.31
2016-10-30T05:44:43.675Z,19.26
2016-10-30T05:45:45.041Z,19.32
2016-10-30T05:46:44.621Z,19.29
2016-10-30T05:47:45.370Z,19.31
2016-10-30T05:48:44.952Z,19.33
2016-10-30T05:49:46.185Z,19.32
2016-10-30T05:50:44.055Z,19.23
2016-10-30T05:51:44.824Z,19.22
2016-10-30T05:52:46.718Z,19.25
2016-10-30T05:53:45.552Z,19.19
2016-10-30T05:54:45.238Z,19.21
2016-10-30T05:55:45.038Z,19.23
2016-10-30T05:56:44.424Z,19.32
2016-10-30T05:57:45.147Z,19.19
2016-10-30T05:59:00.881Z,19.21
2016-10-30T05:59:44.472Z,19.19
2016-10-30T06:00:44.066Z,19.22
2016-10-30T06:01:44.811Z,19.23
2016-10-30T06:02:44.596Z,19.32
2016-10-30T06:03:44.085Z,19.39
2016-10-30T06:04:45.193Z,19.33
2016-10-30T06:05:46.106Z,19.31
2016-10-30T06:06:45.462Z,19.29
2016-10-30T06:07:45.155Z,19.36
2016-10-30T06:08:44.843Z,19.36
2016-10-30T06:09:45.523Z,19.37
2016-10-30T06:10:43.807Z,19.41
2016-10-30T06:11:44.974Z,19.32
2016-10-30T06:12:45.647Z,19.33
2016-10-30T06:13:43.828Z,19.32
2016-10-30T06:14:46.471Z,19.29
2016-10-30T06:15:44.397Z,19.23
2016-10-30T06:16:47.289Z,19.19
2016-10-30T06:17:45.261Z,19.25
2016-10-30T06:18:44.771Z,19.21
2016-10-30T06:19:45.285Z,19.26
2016-10-30T06:20:45.538Z,19.22
2016-10-30T06:21:44.679Z,19.23
2016-10-30T06:22:45.488Z,19.21
2016-10-30T06:23:45.330Z,19.26
2016-10-30T06:24:44.815Z,19.28
2016-10-30T06:25:45.620Z,19.19
2016-10-30T06:26:45.423Z,19.28
2016-10-30T06:27:46.374Z,19.33
2016-10-30T06:28:44.346Z,19.31
2016-10-30T06:29:45.592Z,19.4
2016-10-30T06:30:44.786Z,19.28
2016-10-30T06:31:44.418Z,19.39
2016-10-30T06:32:45.212Z,19.29
2016-10-30T06:33:46.619Z,19.37
2016-10-30T06:34:44.489Z,19.4
2016-10-30T06:35:43.938Z,19.39
2016-10-30T06:36:46.794Z,19.44
2016-10-30T06:37:46.102Z,19.41
2016-10-30T06:38:45.598Z,19.39
2016-10-30T06:39:45.057Z,19.41
2016-10-30T06:40:44.784Z,19.36
2016-10-30T06:41:44.285Z,19.36
2016-10-30T06:42:45.439Z,19.39
2016-10-30T06:43:44.595Z,19.36
2016-10-30T06:44:44.346Z,19.36
2016-10-30T06:45:45.511Z,19.4
2016-10-30T06:46:46.470Z,19.41
2016-10-30T06:47:45.878Z,19.47
2016-10-30T06:48:45.325Z,19.43
2016-10-30T06:49:46.593Z,19.43
2016-10-30T06:50:44.146Z,19.41
2016-10-30T06:51:45.383Z,19.37
2016-10-30T06:52:46.714Z,19.37
2016-10-30T06:53:45.959Z,19.39
2016-10-30T06:54:45.431Z,19.44
2016-10-30T06:55:45.500Z,19.46
2016-10-30T06:56:44.759Z,19.46
2016-10-30T06:57:44.053Z,19.39
2016-10-30T06:58:47.378Z,19.39
2016-10-30T06:59:46.318Z,19.39
2016-10-30T07:00:46.178Z,19.36
2016-10-30T07:01:45.174Z,19.32
2016-10-30T07:02:45.005Z,19.36
2016-10-30T07:03:44.393Z,19.36
2016-10-30T07:04:45.489Z,19.23
2016-10-30T07:05:46.565Z,19.19
2016-10-30T07:06:45.924Z,19.25
2016-10-30T07:07:45.716Z,19.23
2016-10-30T07:08:45.285Z,19.36
2016-10-30T07:09:46.094Z,19.5
2016-10-30T07:10:45.403Z,19.43
2016-10-30T07:11:46.808Z,19.39
2016-10-30T07:12:44.736Z,19.4
2016-10-30T07:13:44.138Z,19.4
2016-10-30T07:14:45.546Z,19.4
2016-10-30T07:15:44.854Z,19.5
2016-10-30T07:16:45.648Z,19.41
2016-10-30T07:17:45.518Z,19.5
2016-10-30T07:18:45.028Z,19.48
2016-10-30T07:19:44.530Z,19.39
2016-10-30T07:20:47.062Z,19.36
2016-10-30T07:21:45.097Z,19.31
2016-10-30T07:22:46.383Z,19.21
2016-10-30T07:23:45.584Z,19.25
2016-10-30T07:24:45.272Z,19.29
2016-10-30T07:25:44.264Z,19.37
2016-10-30T07:26:45.260Z,19.33
2016-10-30T07:27:45.432Z,19.31
2016-10-30T07:28:44.389Z,19.37
2016-10-30T07:29:44.219Z,19.46
2016-10-30T07:30:45.201Z,19.43
2016-10-30T07:31:44.825Z,19.41
2016-10-30T07:32:45.955Z,19.33
2016-10-30T07:33:46.974Z,19.44
2016-10-30T07:34:46.387Z,19.41
2016-10-30T07:35:45.745Z,19.46
2016-10-30T07:36:45.654Z,19.4
2016-10-30T07:37:46.449Z,19.43
2016-10-30T07:38:44.580Z,19.44
2016-10-30T07:39:45.673Z,19.48
2016-10-30T07:40:45.245Z,19.43
2016-10-30T07:41:44.593Z,19.44
2016-10-30T07:42:47.673Z,19.43
2016-10-30T07:43:45.565Z,19.33
2016-10-30T07:44:46.362Z,19.48
2016-10-30T07:45:45.969Z,19.47
2016-10-30T07:46:45.448Z,19.48
2016-10-30T07:47:44.851Z,19.44
2016-10-30T07:48:46.094Z,19.43
2016-10-30T07:49:45.303Z,19.28
2016-10-30T07:50:46.358Z,19.36
2016-10-30T07:51:44.344Z,19.36
2016-10-30T07:52:45.731Z,19.47
2016-10-30T07:53:44.727Z,19.37
2016-10-30T07:54:46.862Z,19.37
2016-10-30T07:55:47.056Z,19.51
2016-10-30T07:56:45.714Z,19.4
2016-10-30T07:57:45.592Z,19.51
2016-10-30T07:58:44.867Z,19.43
2016-10-30T07:59:46.203Z,19.47
2016-10-30T08:00:47.106Z,19.47
2016-10-30T08:01:45.024Z,19.37
2016-10-30T08:02:45.823Z,19.5
2016-10-30T08:03:47.229Z,19.44
2016-10-30T08:04:45.147Z,19.4
2016-10-30T08:05:44.754Z,19.46
2016-10-30T08:06:47.292Z,19.41
2016-10-30T08:07:45.290Z,19.43
2016-10-30T08:08:44.520Z,19.4
2016-10-30T08:09:45.847Z,19.44
2016-10-30T08:10:45.079Z,19.51
2016-10-30T08:11:44.762Z,19.65
2016-10-30T08:12:45.999Z,19.76
2016-10-30T08:13:45.519Z,19.87
2016-10-30T08:14:46.315Z,19.96
2016-10-30T08:15:47.719Z,19.92
2016-10-30T08:16:45.642Z,20.08
2016-10-30T08:17:48.533Z,20.08
2016-10-30T08:18:45.795Z,20.26
2016-10-30T08:19:45.548Z,20.21
2016-10-30T08:20:46.542Z,20.26
2016-10-30T08:21:44.559Z,20.36
2016-10-30T08:22:45.723Z,20.42
2016-10-30T08:23:44.932Z,20.51
2016-10-30T08:24:44.845Z,20.48
2016-10-30T08:25:45.700Z,20.58
2016-10-30T08:26:45.362Z,20.57
2016-10-30T08:27:44.597Z,20.55
2016-10-30T08:28:47.552Z,20.66
2016-10-30T08:29:45.525Z,20.52
2016-10-30T08:30:44.615Z,20.55
2016-10-30T08:31:45.817Z,20.52
2016-10-30T08:32:47.028Z,20.64
2016-10-30T08:33:44.918Z,20.73
2016-10-30T08:34:46.202Z,20.69
2016-10-30T08:35:45.734Z,20.76
2016-10-30T08:36:45.039Z,20.7
2016-10-30T08:37:48.328Z,20.73
2016-10-30T08:38:47.301Z,20.67
2016-10-30T08:39:47.170Z,20.69
2016-10-30T08:40:46.293Z,20.7
2016-10-30T08:41:46.028Z,20.74
2016-10-30T08:42:45.433Z,20.84
2016-10-30T08:43:46.035Z,20.85
2016-10-30T08:44:46.126Z,20.72
2016-10-30T08:45:46.899Z,20.77
2016-10-30T08:46:46.288Z,20.72
2016-10-30T08:47:46.101Z,20.87
2016-10-30T08:48:47.020Z,20.97
2016-10-30T08:49:45.012Z,20.84
2016-10-30T08:50:47.752Z,20.92
2016-10-30T08:51:45.755Z,20.84
2016-10-30T08:52:45.028Z,20.87
2016-10-30T08:53:45.877Z,20.87
2016-10-30T08:54:45.833Z,20.91
2016-10-30T08:55:45.189Z,20.84
2016-10-30T08:56:46.110Z,20.97
2016-10-30T08:57:45.673Z,20.89
2016-10-30T08:58:46.748Z,20.91
2016-10-30T08:59:46.106Z,20.99
2016-10-30T09:00:47.512Z,20.99
2016-10-30T09:01:47.045Z,21.07
2016-10-30T09:02:46.229Z,21.14
2016-10-30T09:03:46.253Z,21.19
2016-10-30T09:04:45.563Z,21.09
2016-10-30T09:05:45.168Z,21.16
2016-10-30T09:06:46.438Z,21.16
2016-10-30T09:07:45.783Z,21.25
2016-10-30T09:08:45.137Z,21.28
2016-10-30T09:09:46.266Z,21.31
2016-10-30T09:10:45.800Z,21.27
2016-10-30T09:11:45.163Z,21.27
2016-10-30T09:12:47.888Z,21.35
2016-10-30T09:13:46.170Z,21.42
2016-10-30T09:14:44.927Z,21.19
2016-10-30T09:15:46.516Z,21.06
2016-10-30T09:16:46.089Z,21.04
2016-10-30T09:17:45.353Z,21.27
2016-10-30T09:18:46.637Z,21.24
2016-10-30T09:19:46.167Z,21.16
2016-10-30T09:20:45.529Z,21.13
2016-10-30T09:21:46.512Z,21.14
2016-10-30T09:22:47.728Z,21.21
2016-10-30T09:23:47.922Z,21.19
2016-10-30T09:24:44.976Z,21.13
2016-10-30T09:25:46.035Z,21.06
2016-10-30T09:26:45.768Z,21.19
2016-10-30T09:27:44.996Z,21.16
2016-10-30T09:28:46.058Z,21.14
2016-10-30T09:29:47.334Z,21.19
2016-10-30T09:30:45.282Z,21.28
2016-10-30T09:31:46.051Z,21.17
2016-10-30T09:32:46.020Z,21.24
2016-10-30T09:33:45.382Z,21.06
2016-10-30T09:34:48.196Z,20.99
2016-10-30T09:35:46.145Z,20.88
2016-10-30T09:36:45.451Z,20.97
2016-10-30T09:37:46.368Z,20.95
2016-10-30T09:38:46.364Z,20.97
2016-10-30T09:39:45.309Z,20.99
2016-10-30T09:40:45.025Z,20.95
2016-10-30T09:41:46.434Z,20.88
2016-10-30T09:42:45.696Z,20.99
2016-10-30T09:43:46.507Z,20.85
2016-10-30T09:44:46.100Z,20.94
2016-10-30T09:45:47.799Z,20.88
2016-10-30T09:46:45.376Z,20.82
2016-10-30T09:47:46.142Z,20.85
2016-10-30T09:48:46.090Z,20.87
2016-10-30T09:49:45.390Z,20.85
2016-10-30T09:50:46.268Z,20.84
2016-10-30T09:51:46.114Z,20.82
2016-10-30T09:52:45.109Z,20.82
2016-10-30T09:53:46.270Z,20.88
2016-10-30T09:54:46.231Z,20.79
2016-10-30T09:55:45.229Z,20.73
2016-10-30T09:56:48.323Z,20.72
2016-10-30T09:57:46.409Z,20.67
2016-10-30T09:58:45.722Z,20.59
2016-10-30T09:59:46.513Z,20.58
2016-10-30T10:00:47.861Z,20.62
2016-10-30T10:01:45.874Z,20.58
2016-10-30T10:02:46.521Z,20.55
2016-10-30T10:03:46.838Z,20.57
2016-10-30T10:04:45.960Z,20.57
2016-10-30T10:05:48.855Z,20.61
2016-10-30T10:06:46.880Z,20.72
2016-10-30T10:07:46.704Z,20.66
2016-10-30T10:08:46.600Z,20.74
2016-10-30T10:09:47.444Z,20.66
2016-10-30T10:10:45.297Z,20.67
2016-10-30T10:11:46.621Z,20.61
2016-10-30T10:12:47.594Z,20.62
2016-10-30T10:13:46.894Z,20.64
2016-10-30T10:14:46.484Z,20.62
2016-10-30T10:15:46.277Z,20.58
2016-10-30T10:16:47.088Z,20.62
2016-10-30T10:17:46.866Z,20.54
2016-10-30T10:18:46.084Z,20.61
2016-10-30T10:19:45.757Z,20.55
2016-10-30T10:20:46.552Z,20.61
2016-10-30T10:21:46.519Z,20.64
2016-10-30T10:22:45.830Z,20.55
2016-10-30T10:23:47.797Z,20.38
2016-10-30T10:24:46.436Z,20.41
2016-10-30T10:25:46.002Z,20.52
2016-10-30T10:26:45.606Z,20.41
2016-10-30T10:27:46.976Z,20.29
2016-10-30T10:29:46.934Z,20.26
2016-10-30T10:30:46.681Z,20.41
2016-10-30T10:31:47.686Z,20.33
2016-10-30T10:32:47.045Z,20.33
2016-10-30T10:33:46.761Z,20.39
2016-10-30T10:34:46.376Z,20.39
2016-10-30T10:35:47.052Z,20.33
2016-10-30T10:36:46.649Z,20.35
2016-10-30T10:37:46.178Z,20.23
2016-10-30T10:38:47.726Z,20.35
2016-10-30T10:39:46.823Z,20.33
2016-10-30T10:40:48.702Z,20.39
2016-10-30T10:41:47.413Z,20.42
2016-10-30T10:42:47.049Z,20.35
2016-10-30T10:43:46.477Z,20.39
2016-10-30T10:44:46.151Z,20.43
2016-10-30T10:45:46.893Z,20.39
2016-10-30T10:46:46.769Z,20.2
2016-10-30T10:47:45.904Z,20.16
2016-10-30T10:48:47.015Z,20.26
2016-10-30T10:49:47.195Z,20.08
2016-10-30T10:50:46.344Z,20.08
2016-10-30T10:51:45.785Z,20.23
2016-10-30T10:52:46.498Z,20.2
2016-10-30T10:53:46.467Z,20.08
2016-10-30T10:54:45.785Z,20.11
2016-10-30T10:55:46.745Z,20.16
2016-10-30T10:56:46.585Z,20.14
2016-10-30T10:57:47.385Z,20.05
2016-10-30T10:58:46.742Z,20.06
2016-10-30T10:59:46.711Z,20.06
2016-10-30T11:00:47.629Z,20.03
2016-10-30T11:01:47.188Z,20.02
2016-10-30T11:02:48.808Z,20.26
2016-10-30T11:03:47.514Z,20.23
2016-10-30T11:04:46.989Z,20.28
2016-10-30T11:05:46.868Z,20.29
2016-10-30T11:06:47.731Z,20.33
2016-10-30T11:07:47.111Z,20.39
2016-10-30T11:08:46.873Z,20.36
2016-10-30T11:09:47.878Z,20.35
2016-10-30T11:10:45.930Z,20.21
2016-10-30T11:11:47.300Z,20.26
2016-10-30T11:12:48.013Z,20.23
2016-10-30T11:13:46.167Z,20.06
2016-10-30T11:14:46.599Z,20.08
2016-10-30T11:15:48.091Z,20.18
2016-10-30T11:16:45.783Z,20.14
2016-10-30T11:17:47.273Z,20.17
2016-10-30T11:18:46.541Z,20.21
2016-10-30T11:19:46.114Z,20.31
2016-10-30T11:20:46.958Z,20.29
2016-10-30T11:21:46.664Z,20.03
2016-10-30T11:22:47.846Z,19.76
2016-10-30T11:23:47.081Z,19.88
2016-10-30T11:24:46.985Z,19.99
2016-10-30T11:25:46.096Z,20.05
2016-10-30T11:26:45.981Z,20.01
2016-10-30T11:27:47.019Z,20.24
2016-10-30T11:28:46.533Z,20.21
2016-10-30T11:29:45.949Z,20.24
2016-10-30T11:30:46.808Z,20.31
2016-10-30T11:31:46.338Z,20.21
2016-10-30T11:32:45.652Z,20.06
2016-10-30T11:33:48.856Z,19.86
2016-10-30T11:34:46.773Z,19.8
2016-10-30T11:35:48.245Z,19.69
2016-10-30T11:36:46.926Z,19.69
2016-10-30T11:37:46.949Z,19.47
2016-10-30T11:38:47.579Z,19.31
2016-10-30T11:39:47.061Z,19.23
2016-10-30T11:40:48.457Z,19.1
2016-10-30T11:41:46.019Z,19.22
2016-10-30T11:42:47.059Z,19.22
2016-10-30T11:43:47.121Z,19.4
2016-10-30T11:44:50.035Z,19.37
2016-10-30T11:45:46.030Z,19.28
2016-10-30T11:46:47.408Z,19.21
2016-10-30T11:47:46.685Z,19.23
2016-10-30T11:48:47.418Z,19.22
2016-10-30T11:49:47.211Z,19.18
2016-10-30T11:50:46.433Z,19.39
2016-10-30T11:51:45.742Z,19.5
2016-10-30T11:52:47.121Z,19.73
2016-10-30T11:53:46.871Z,19.87
2016-10-30T11:54:46.180Z,19.88
2016-10-30T11:55:49.052Z,19.98
2016-10-30T11:56:46.673Z,19.99
2016-10-30T11:57:47.936Z,20.03
2016-10-30T11:58:47.580Z,19.94
2016-10-30T11:59:48.550Z,19.98
2016-10-30T12:00:46.155Z,19.95
2016-10-30T12:01:47.152Z,19.94
2016-10-30T12:02:48.599Z,20.03
2016-10-30T12:03:46.640Z,19.92
2016-10-30T12:04:46.123Z,19.59
2016-10-30T12:05:47.191Z,19.55
2016-10-30T12:06:48.669Z,19.5
2016-10-30T12:07:45.835Z,19.43
2016-10-30T12:08:46.996Z,19.23
2016-10-30T12:09:46.851Z,19.21
2016-10-30T12:10:46.157Z,19.23
2016-10-30T12:11:46.998Z,19.37
2016-10-30T12:12:46.646Z,19.19
2016-10-30T12:13:45.957Z,19.19
2016-10-30T12:14:47.552Z,19.04
2016-10-30T12:15:47.132Z,19
2016-10-30T12:16:46.439Z,19
2016-10-30T12:17:49.267Z,18.85
2016-10-30T12:18:48.644Z,18.91
2016-10-30T12:19:48.379Z,18.85
2016-10-30T12:20:47.259Z,18.87
2016-10-30T12:21:46.992Z,19.06
2016-10-30T12:22:46.691Z,19.16
2016-10-30T12:23:46.221Z,18.98
2016-10-30T12:24:47.597Z,18.88
2016-10-30T12:25:46.826Z,18.82
2016-10-30T12:26:46.235Z,18.76
2016-10-30T12:27:47.098Z,18.7
2016-10-30T12:28:48.883Z,18.78
2016-10-30T12:29:46.294Z,18.62
2016-10-30T12:30:47.319Z,18.67
2016-10-30T12:31:48.494Z,18.72
2016-10-30T12:32:46.365Z,18.8
2016-10-30T12:33:47.645Z,18.58
2016-10-30T12:34:46.863Z,18.67
2016-10-30T12:35:47.976Z,18.81
2016-10-30T12:36:47.332Z,18.95
2016-10-30T12:37:48.739Z,19.11
2016-10-30T12:38:47.988Z,19.25
2016-10-30T12:39:48.439Z,19.25
2016-10-30T12:40:47.444Z,19.48
2016-10-30T12:41:48.281Z,19.54
2016-10-30T12:42:47.581Z,19.56
2016-10-30T12:43:47.394Z,19.5
2016-10-30T12:44:46.906Z,19.51
2016-10-30T12:45:46.318Z,19.55
2016-10-30T12:46:47.185Z,19.55
2016-10-30T12:47:46.716Z,19.46
2016-10-30T12:48:46.549Z,19.5
2016-10-30T12:49:47.309Z,19.46
2016-10-30T12:50:49.032Z,19.32
2016-10-30T12:51:47.832Z,19.28
2016-10-30T12:52:47.631Z,19.23
2016-10-30T12:53:48.713Z,19.37
2016-10-30T12:54:46.271Z,19.37
2016-10-30T12:55:46.055Z,19.44
2016-10-30T12:56:47.445Z,19.55